Аэропорт: Уйташ. Махачкала

ICAO: URML

METAR:
2020-06-02 08:00:00
URML 020800Z 05004MPS 010V110 9999 NSC 26/16 Q1006 R14/01//70 NOSIG RMK QFE754/1006
METAR:
2020-06-02 05:00:00
TAF URML 020500Z 0206/0215 12006G11MPS 9999 NSC BECMG 0208/0210 SCT040CB PROB40 TEMPO 0210/0215 -TSRA BKN030CB